sensor_id;sensor_type;location;lat;lon;timestamp;P1;durP1;ratioP1;P2;durP2;ratioP2
2868;SDS011;1442;47.448;8.582;2024-03-23T00:54:04;5.28;;;3.00;;
2868;SDS011;1442;47.448;8.582;2024-03-23T00:56:31;5.00;;;2.95;;
2868;SDS011;1442;47.448;8.582;2024-03-23T00:58:57;5.13;;;2.70;;
2868;SDS011;1442;47.448;8.582;2024-03-23T01:01:24;6.45;;;3.15;;
2868;SDS011;1442;47.448;8.582;2024-03-23T01:03:50;4.60;;;2.95;;
2868;SDS011;1442;47.448;8.582;2024-03-23T01:06:16;5.28;;;3.30;;
2868;SDS011;1442;47.448;8.582;2024-03-23T01:08:43;4.05;;;2.88;;
2868;SDS011;1442;47.448;8.582;2024-03-23T01:11:10;5.70;;;2.78;;
2868;SDS011;1442;47.448;8.582;2024-03-23T01:13:37;5.85;;;3.13;;
2868;SDS011;1442;47.448;8.582;2024-03-23T01:16:03;5.57;;;3.00;;
2868;SDS011;1442;47.448;8.582;2024-03-23T01:18:29;4.82;;;3.03;;
2868;SDS011;1442;47.448;8.582;2024-03-23T01:20:58;5.68;;;3.15;;
2868;SDS011;1442;47.448;8.582;2024-03-23T01:23:24;5.55;;;2.80;;
2868;SDS011;1442;47.448;8.582;2024-03-23T01:25:54;7.25;;;2.85;;
2868;SDS011;1442;47.448;8.582;2024-03-23T01:28:22;5.53;;;3.30;;
2868;SDS011;1442;47.448;8.582;2024-03-23T01:30:48;8.70;;;3.00;;
2868;SDS011;1442;47.448;8.582;2024-03-23T01:33:15;7.10;;;3.25;;
2868;SDS011;1442;47.448;8.582;2024-03-23T01:35:41;6.35;;;3.10;;
2868;SDS011;1442;47.448;8.582;2024-03-23T01:38:08;9.15;;;3.42;;
2868;SDS011;1442;47.448;8.582;2024-03-23T01:40:34;5.75;;;3.30;;
2868;SDS011;1442;47.448;8.582;2024-03-23T01:43:03;6.78;;;3.03;;
2868;SDS011;1442;47.448;8.582;2024-03-23T01:45:30;7.53;;;3.03;;
2868;SDS011;1442;47.448;8.582;2024-03-23T01:47:57;7.30;;;3.05;;
2868;SDS011;1442;47.448;8.582;2024-03-23T01:50:23;4.95;;;2.85;;
2868;SDS011;1442;47.448;8.582;2024-03-23T01:52:51;5.00;;;2.70;;
2868;SDS011;1442;47.448;8.582;2024-03-23T01:55:17;5.80;;;3.45;;
2868;SDS011;1442;47.448;8.582;2024-03-23T01:57:44;7.15;;;2.75;;
2868;SDS011;1442;47.448;8.582;2024-03-23T02:00:11;5.53;;;2.78;;
2868;SDS011;1442;47.448;8.582;2024-03-23T02:02:42;4.82;;;2.80;;
2868;SDS011;1442;47.448;8.582;2024-03-23T02:05:09;5.82;;;2.50;;
2868;SDS011;1442;47.448;8.582;2024-03-23T02:07:36;5.18;;;2.53;;
2868;SDS011;1442;47.448;8.582;2024-03-23T02:10:03;3.65;;;2.05;;
2868;SDS011;1442;47.448;8.582;2024-03-23T02:12:31;3.33;;;2.33;;
2868;SDS011;1442;47.448;8.582;2024-03-23T02:14:56;3.75;;;1.95;;
2868;SDS011;1442;47.448;8.582;2024-03-23T02:17:24;4.05;;;1.88;;
2868;SDS011;1442;47.448;8.582;2024-03-23T02:19:50;4.10;;;2.20;;
2868;SDS011;1442;47.448;8.582;2024-03-23T02:22:17;4.55;;;1.85;;
2868;SDS011;1442;47.448;8.582;2024-03-23T02:24:44;4.35;;;2.00;;
2868;SDS011;1442;47.448;8.582;2024-03-23T02:27:11;3.63;;;1.75;;
2868;SDS011;1442;47.448;8.582;2024-03-23T02:29:37;3.00;;;1.70;;
2868;SDS011;1442;47.448;8.582;2024-03-23T02:32:04;3.08;;;1.80;;
2868;SDS011;1442;47.448;8.582;2024-03-23T02:34:30;3.22;;;1.92;;
2868;SDS011;1442;47.448;8.582;2024-03-23T02:36:57;2.35;;;1.52;;
2868;SDS011;1442;47.448;8.582;2024-03-23T02:39:22;2.67;;;1.60;;
2868;SDS011;1442;47.448;8.582;2024-03-23T02:41:50;1.92;;;1.65;;
2868;SDS011;1442;47.448;8.582;2024-03-23T02:44:16;2.42;;;1.90;;
2868;SDS011;1442;47.448;8.582;2024-03-23T02:46:43;6.95;;;2.00;;
2868;SDS011;1442;47.448;8.582;2024-03-23T02:49:09;2.47;;;2.00;;
2868;SDS011;1442;47.448;8.582;2024-03-23T02:51:35;3.05;;;1.75;;
2868;SDS011;1442;47.448;8.582;2024-03-23T02:54:01;2.47;;;1.60;;
2868;SDS011;1442;47.448;8.582;2024-03-23T02:56:28;3.42;;;1.80;;
2868;SDS011;1442;47.448;8.582;2024-03-23T02:58:55;3.22;;;2.00;;
2868;SDS011;1442;47.448;8.582;2024-03-23T03:01:22;2.97;;;1.67;;
2868;SDS011;1442;47.448;8.582;2024-03-23T03:03:47;1.40;;;1.30;;
2868;SDS011;1442;47.448;8.582;2024-03-23T03:06:22;2.03;;;1.55;;
2868;SDS011;1442;47.448;8.582;2024-03-23T03:08:48;4.00;;;1.90;;
2868;SDS011;1442;47.448;8.582;2024-03-23T03:11:15;2.97;;;1.95;;
2868;SDS011;1442;47.448;8.582;2024-03-23T03:13:41;3.60;;;1.77;;
2868;SDS011;1442;47.448;8.582;2024-03-23T03:16:09;3.00;;;2.10;;
2868;SDS011;1442;47.448;8.582;2024-03-23T03:18:35;4.18;;;1.92;;
2868;SDS011;1442;47.448;8.582;2024-03-23T03:21:02;2.30;;;1.73;;
2868;SDS011;1442;47.448;8.582;2024-03-23T03:23:28;2.65;;;1.75;;
2868;SDS011;1442;47.448;8.582;2024-03-23T03:25:55;4.10;;;1.92;;
2868;SDS011;1442;47.448;8.582;2024-03-23T03:28:20;3.05;;;1.88;;
2868;SDS011;1442;47.448;8.582;2024-03-23T03:30:47;2.97;;;1.45;;
2868;SDS011;1442;47.448;8.582;2024-03-23T03:33:14;7.85;;;2.40;;
2868;SDS011;1442;47.448;8.582;2024-03-23T03:35:41;2.63;;;1.80;;
2868;SDS011;1442;47.448;8.582;2024-03-23T03:38:08;3.00;;;1.83;;
2868;SDS011;1442;47.448;8.582;2024-03-23T03:40:35;4.40;;;2.00;;
2868;SDS011;1442;47.448;8.582;2024-03-23T03:43:01;3.35;;;1.83;;
2868;SDS011;1442;47.448;8.582;2024-03-23T03:45:27;5.95;;;1.80;;
2868;SDS011;1442;47.448;8.582;2024-03-23T03:47:53;2.33;;;1.77;;
2868;SDS011;1442;47.448;8.582;2024-03-23T03:50:21;6.30;;;2.20;;
2868;SDS011;1442;47.448;8.582;2024-03-23T03:52:47;5.40;;;1.88;;
2868;SDS011;1442;47.448;8.582;2024-03-23T03:55:14;2.15;;;1.75;;
2868;SDS011;1442;47.448;8.582;2024-03-23T03:57:40;2.35;;;1.70;;
2868;SDS011;1442;47.448;8.582;2024-03-23T04:00:08;2.08;;;1.67;;
2868;SDS011;1442;47.448;8.582;2024-03-23T04:02:36;3.42;;;1.70;;
2868;SDS011;1442;47.448;8.582;2024-03-23T04:05:03;5.57;;;1.73;;
2868;SDS011;1442;47.448;8.582;2024-03-23T04:07:30;9.23;;;1.50;;
2868;SDS011;1442;47.448;8.582;2024-03-23T04:09:57;4.20;;;1.80;;
2868;SDS011;1442;47.448;8.582;2024-03-23T04:12:23;3.30;;;1.80;;
2868;SDS011;1442;47.448;8.582;2024-03-23T04:14:49;4.15;;;1.95;;
2868;SDS011;1442;47.448;8.582;2024-03-23T04:17:15;3.25;;;1.48;;
2868;SDS011;1442;47.448;8.582;2024-03-23T04:19:43;2.03;;;1.73;;
2868;SDS011;1442;47.448;8.582;2024-03-23T04:22:09;1.70;;;1.60;;
2868;SDS011;1442;47.448;8.582;2024-03-23T04:24:37;2.42;;;1.45;;
2868;SDS011;1442;47.448;8.582;2024-03-23T04:27:03;3.10;;;1.70;;
2868;SDS011;1442;47.448;8.582;2024-03-23T04:29:30;2.13;;;1.92;;
2868;SDS011;1442;47.448;8.582;2024-03-23T04:31:56;2.90;;;1.88;;
2868;SDS011;1442;47.448;8.582;2024-03-23T04:34:23;3.30;;;1.60;;
2868;SDS011;1442;47.448;8.582;2024-03-23T04:36:49;1.95;;;1.75;;
2868;SDS011;1442;47.448;8.582;2024-03-23T04:39:15;4.43;;;1.85;;
2868;SDS011;1442;47.448;8.582;2024-03-23T04:41:43;5.15;;;2.10;;
2868;SDS011;1442;47.448;8.582;2024-03-23T04:44:10;3.67;;;1.80;;
2868;SDS011;1442;47.448;8.582;2024-03-23T04:46:37;4.72;;;1.52;;
2868;SDS011;1442;47.448;8.582;2024-03-23T04:49:03;3.47;;;1.80;;
2868;SDS011;1442;47.448;8.582;2024-03-23T04:51:34;3.70;;;1.90;;
2868;SDS011;1442;47.448;8.582;2024-03-23T04:54:02;5.20;;;1.90;;
2868;SDS011;1442;47.448;8.582;2024-03-23T04:56:30;3.78;;;1.58;;
2868;SDS011;1442;47.448;8.582;2024-03-23T04:58:59;5.32;;;2.20;;
2868;SDS011;1442;47.448;8.582;2024-03-23T05:01:26;3.03;;;1.70;;
2868;SDS011;1442;47.448;8.582;2024-03-23T05:03:53;2.10;;;1.50;;
2868;SDS011;1442;47.448;8.582;2024-03-23T05:06:19;3.17;;;2.05;;
2868;SDS011;1442;47.448;8.582;2024-03-23T05:08:45;3.53;;;2.10;;
2868;SDS011;1442;47.448;8.582;2024-03-23T05:11:11;5.20;;;1.88;;
2868;SDS011;1442;47.448;8.582;2024-03-23T05:13:38;3.63;;;1.60;;
2868;SDS011;1442;47.448;8.582;2024-03-23T05:16:05;5.88;;;1.98;;
2868;SDS011;1442;47.448;8.582;2024-03-23T05:18:32;3.15;;;1.65;;
2868;SDS011;1442;47.448;8.582;2024-03-23T05:20:58;3.72;;;1.80;;
2868;SDS011;1442;47.448;8.582;2024-03-23T05:23:25;4.15;;;1.73;;
2868;SDS011;1442;47.448;8.582;2024-03-23T05:25:51;3.80;;;1.70;;
2868;SDS011;1442;47.448;8.582;2024-03-23T05:28:18;8.23;;;2.20;;
2868;SDS011;1442;47.448;8.582;2024-03-23T05:30:44;2.30;;;1.83;;
2868;SDS011;1442;47.448;8.582;2024-03-23T05:35:44;4.93;;;2.70;;
2868;SDS011;1442;47.448;8.582;2024-03-23T05:38:10;4.55;;;2.35;;
2868;SDS011;1442;47.448;8.582;2024-03-23T05:40:37;3.08;;;2.33;;
2868;SDS011;1442;47.448;8.582;2024-03-23T05:43:05;6.03;;;2.35;;
2868;SDS011;1442;47.448;8.582;2024-03-23T05:45:32;3.13;;;2.20;;
2868;SDS011;1442;47.448;8.582;2024-03-23T05:47:57;3.95;;;2.42;;
2868;SDS011;1442;47.448;8.582;2024-03-23T05:50:25;2.47;;;2.10;;
2868;SDS011;1442;47.448;8.582;2024-03-23T05:52:51;3.30;;;2.35;;
2868;SDS011;1442;47.448;8.582;2024-03-23T05:55:18;3.22;;;2.30;;
2868;SDS011;1442;47.448;8.582;2024-03-23T05:57:44;2.75;;;1.90;;
2868;SDS011;1442;47.448;8.582;2024-03-23T06:00:11;3.45;;;2.65;;
2868;SDS011;1442;47.448;8.582;2024-03-23T06:02:41;2.55;;;2.20;;
2868;SDS011;1442;47.448;8.582;2024-03-23T06:05:09;4.38;;;2.50;;
2868;SDS011;1442;47.448;8.582;2024-03-23T06:07:36;4.00;;;3.25;;
2868;SDS011;1442;47.448;8.582;2024-03-23T06:10:03;4.38;;;3.72;;
2868;SDS011;1442;47.448;8.582;2024-03-23T06:12:30;4.72;;;3.47;;
2868;SDS011;1442;47.448;8.582;2024-03-23T06:14:57;4.63;;;3.45;;
2868;SDS011;1442;47.448;8.582;2024-03-23T06:17:23;6.50;;;4.05;;
2868;SDS011;1442;47.448;8.582;2024-03-23T06:19:49;6.50;;;3.67;;
2868;SDS011;1442;47.448;8.582;2024-03-23T06:22:15;9.40;;;3.85;;
2868;SDS011;1442;47.448;8.582;2024-03-23T06:24:43;3.85;;;3.13;;
2868;SDS011;1442;47.448;8.582;2024-03-23T06:27:09;7.20;;;3.80;;
2868;SDS011;1442;47.448;8.582;2024-03-23T06:29:36;4.38;;;3.13;;
2868;SDS011;1442;47.448;8.582;2024-03-23T06:32:02;5.05;;;3.80;;
2868;SDS011;1442;47.448;8.582;2024-03-23T06:34:29;6.50;;;3.72;;
2868;SDS011;1442;47.448;8.582;2024-03-23T06:36:55;9.35;;;4.28;;
2868;SDS011;1442;47.448;8.582;2024-03-23T06:39:22;7.45;;;4.78;;
2868;SDS011;1442;47.448;8.582;2024-03-23T06:41:52;9.38;;;4.38;;
2868;SDS011;1442;47.448;8.582;2024-03-23T06:44:19;8.70;;;4.65;;
2868;SDS011;1442;47.448;8.582;2024-03-23T06:46:45;9.93;;;4.28;;
2868;SDS011;1442;47.448;8.582;2024-03-23T06:49:12;9.15;;;4.25;;
2868;SDS011;1442;47.448;8.582;2024-03-23T06:51:38;5.15;;;4.22;;
2868;SDS011;1442;47.448;8.582;2024-03-23T06:54:05;6.57;;;4.20;;
2868;SDS011;1442;47.448;8.582;2024-03-23T06:56:31;8.38;;;4.75;;
2868;SDS011;1442;47.448;8.582;2024-03-23T06:58:59;7.82;;;4.15;;
2868;SDS011;1442;47.448;8.582;2024-03-23T07:01:25;6.72;;;4.65;;
2868;SDS011;1442;47.448;8.582;2024-03-23T07:03:53;5.28;;;3.60;;
2868;SDS011;1442;47.448;8.582;2024-03-23T07:06:19;5.97;;;3.95;;
2868;SDS011;1442;47.448;8.582;2024-03-23T07:08:46;4.60;;;3.20;;
2868;SDS011;1442;47.448;8.582;2024-03-23T07:11:12;4.88;;;2.90;;
2868;SDS011;1442;47.448;8.582;2024-03-23T07:13:44;4.13;;;3.22;;
2868;SDS011;1442;47.448;8.582;2024-03-23T07:16:12;6.22;;;2.92;;
2868;SDS011;1442;47.448;8.582;2024-03-23T07:18:39;4.22;;;2.40;;
2868;SDS011;1442;47.448;8.582;2024-03-23T07:21:05;2.65;;;2.15;;
2868;SDS011;1442;47.448;8.582;2024-03-23T07:23:32;4.95;;;2.75;;
2868;SDS011;1442;47.448;8.582;2024-03-23T07:25:58;3.40;;;2.45;;
2868;SDS011;1442;47.448;8.582;2024-03-23T07:28:25;6.90;;;3.08;;
2868;SDS011;1442;47.448;8.582;2024-03-23T07:31:04;3.47;;;2.53;;
2868;SDS011;1442;47.448;8.582;2024-03-23T07:33:35;4.30;;;2.22;;
2868;SDS011;1442;47.448;8.582;2024-03-23T07:36:01;3.00;;;2.58;;
2868;SDS011;1442;47.448;8.582;2024-03-23T07:38:28;3.38;;;2.10;;
2868;SDS011;1442;47.448;8.582;2024-03-23T07:41:02;5.00;;;2.08;;
2868;SDS011;1442;47.448;8.582;2024-03-23T07:43:29;3.03;;;2.00;;
2868;SDS011;1442;47.448;8.582;2024-03-23T07:45:55;2.60;;;2.00;;
2868;SDS011;1442;47.448;8.582;2024-03-23T07:48:22;3.60;;;2.15;;
2868;SDS011;1442;47.448;8.582;2024-03-23T07:50:56;3.10;;;2.53;;
2868;SDS011;1442;47.448;8.582;2024-03-23T07:53:24;2.70;;;2.13;;
2868;SDS011;1442;47.448;8.582;2024-03-23T07:55:52;2.10;;;1.85;;
2868;SDS011;1442;47.448;8.582;2024-03-23T07:58:20;1.60;;;1.50;;
2868;SDS011;1442;47.448;8.582;2024-03-23T08:00:46;1.52;;;0.90;;
2868;SDS011;1442;47.448;8.582;2024-03-23T08:03:13;1.08;;;0.80;;
2868;SDS011;1442;47.448;8.582;2024-03-23T08:05:38;1.08;;;0.80;;
2868;SDS011;1442;47.448;8.582;2024-03-23T08:08:07;0.60;;;0.60;;
2868;SDS011;1442;47.448;8.582;2024-03-23T08:10:32;4.40;;;0.63;;
2868;SDS011;1442;47.448;8.582;2024-03-23T08:12:59;1.10;;;0.60;;
2868;SDS011;1442;47.448;8.582;2024-03-23T08:15:25;2.05;;;0.70;;
2868;SDS011;1442;47.448;8.582;2024-03-23T08:17:52;0.43;;;0.43;;
2868;SDS011;1442;47.448;8.582;2024-03-23T08:20:17;0.70;;;0.55;;
2868;SDS011;1442;47.448;8.582;2024-03-23T08:22:44;0.45;;;0.45;;
2868;SDS011;1442;47.448;8.582;2024-03-23T08:25:11;1.17;;;0.60;;
2868;SDS011;1442;47.448;8.582;2024-03-23T08:27:38;1.17;;;0.47;;
2868;SDS011;1442;47.448;8.582;2024-03-23T08:30:04;0.32;;;0.32;;
2868;SDS011;1442;47.448;8.582;2024-03-23T08:32:32;0.85;;;0.50;;
2868;SDS011;1442;47.448;8.582;2024-03-23T08:34:58;2.33;;;0.50;;
2868;SDS011;1442;47.448;8.582;2024-03-23T08:37:24;0.50;;;0.50;;
2868;SDS011;1442;47.448;8.582;2024-03-23T08:39:50;1.02;;;0.50;;
2868;SDS011;1442;47.448;8.582;2024-03-23T08:42:19;0.60;;;0.40;;
2868;SDS011;1442;47.448;8.582;2024-03-23T08:44:46;3.00;;;0.50;;
2868;SDS011;1442;47.448;8.582;2024-03-23T08:47:14;0.55;;;0.40;;
2868;SDS011;1442;47.448;8.582;2024-03-23T08:49:40;1.25;;;0.63;;
2868;SDS011;1442;47.448;8.582;2024-03-23T08:52:07;0.65;;;0.40;;
2868;SDS011;1442;47.448;8.582;2024-03-23T08:54:33;0.55;;;0.55;;
2868;SDS011;1442;47.448;8.582;2024-03-23T08:56:59;3.60;;;0.60;;
2868;SDS011;1442;47.448;8.582;2024-03-23T08:59:26;1.52;;;0.50;;
2868;SDS011;1442;47.448;8.582;2024-03-23T09:01:53;1.38;;;0.70;;
2868;SDS011;1442;47.448;8.582;2024-03-23T09:04:19;3.40;;;0.90;;
2868;SDS011;1442;47.448;8.582;2024-03-23T09:06:46;1.40;;;0.80;;
2868;SDS011;1442;47.448;8.582;2024-03-23T09:09:12;3.08;;;0.93;;
2868;SDS011;1442;47.448;8.582;2024-03-23T09:11:39;3.85;;;1.35;;
2868;SDS011;1442;47.448;8.582;2024-03-23T09:14:04;5.25;;;1.65;;
2868;SDS011;1442;47.448;8.582;2024-03-23T09:16:32;3.10;;;1.10;;
2868;SDS011;1442;47.448;8.582;2024-03-23T09:18:58;4.22;;;1.02;;
2868;SDS011;1442;47.448;8.582;2024-03-23T09:21:25;4.22;;;1.20;;
2868;SDS011;1442;47.448;8.582;2024-03-23T09:23:51;3.75;;;1.38;;
2868;SDS011;1442;47.448;8.582;2024-03-23T09:26:17;7.47;;;1.30;;
2868;SDS011;1442;47.448;8.582;2024-03-23T09:28:43;6.43;;;1.40;;
2868;SDS011;1442;47.448;8.582;2024-03-23T09:31:10;7.30;;;1.83;;
2868;SDS011;1442;47.448;8.582;2024-03-23T09:33:40;8.10;;;2.10;;
2868;SDS011;1442;47.448;8.582;2024-03-23T09:36:07;4.15;;;1.58;;
2868;SDS011;1442;47.448;8.582;2024-03-23T09:38:34;7.55;;;1.40;;
2868;SDS011;1442;47.448;8.582;2024-03-23T09:41:06;5.10;;;1.52;;
2868;SDS011;1442;47.448;8.582;2024-03-23T09:43:32;5.85;;;1.85;;
2868;SDS011;1442;47.448;8.582;2024-03-23T09:45:59;7.30;;;1.75;;
2868;SDS011;1442;47.448;8.582;2024-03-23T09:48:26;7.50;;;1.70;;
2868;SDS011;1442;47.448;8.582;2024-03-23T09:50:54;7.03;;;1.63;;
2868;SDS011;1442;47.448;8.582;2024-03-23T09:53:20;8.93;;;2.13;;
2868;SDS011;1442;47.448;8.582;2024-03-23T09:55:47;12.75;;;2.25;;
2868;SDS011;1442;47.448;8.582;2024-03-23T09:58:14;6.60;;;2.00;;
2868;SDS011;1442;47.448;8.582;2024-03-23T10:00:42;7.25;;;2.25;;
2868;SDS011;1442;47.448;8.582;2024-03-23T10:03:08;4.95;;;1.75;;
2868;SDS011;1442;47.448;8.582;2024-03-23T10:05:36;5.55;;;1.85;;
2868;SDS011;1442;47.448;8.582;2024-03-23T10:08:04;7.43;;;1.60;;
2868;SDS011;1442;47.448;8.582;2024-03-23T10:10:44;5.47;;;1.90;;
2868;SDS011;1442;47.448;8.582;2024-03-23T10:13:11;5.07;;;1.70;;
2868;SDS011;1442;47.448;8.582;2024-03-23T10:15:50;8.45;;;1.70;;
2868;SDS011;1442;47.448;8.582;2024-03-23T10:18:20;4.93;;;1.52;;
2868;SDS011;1442;47.448;8.582;2024-03-23T10:20:50;8.45;;;1.83;;
2868;SDS011;1442;47.448;8.582;2024-03-23T10:23:18;10.40;;;2.35;;
2868;SDS011;1442;47.448;8.582;2024-03-23T10:25:45;7.40;;;1.70;;
2868;SDS011;1442;47.448;8.582;2024-03-23T10:28:11;9.38;;;1.35;;
2868;SDS011;1442;47.448;8.582;2024-03-23T10:30:38;7.75;;;1.35;;
2868;SDS011;1442;47.448;8.582;2024-03-23T10:33:07;8.30;;;1.42;;
2868;SDS011;1442;47.448;8.582;2024-03-23T10:35:34;5.10;;;2.25;;
2868;SDS011;1442;47.448;8.582;2024-03-23T10:38:02;9.15;;;2.13;;
2868;SDS011;1442;47.448;8.582;2024-03-23T10:40:32;7.10;;;1.40;;
2868;SDS011;1442;47.448;8.582;2024-03-23T10:42:59;8.50;;;2.63;;
2868;SDS011;1442;47.448;8.582;2024-03-23T10:45:27;5.63;;;1.55;;
2868;SDS011;1442;47.448;8.582;2024-03-23T10:47:52;5.07;;;1.83;;
2868;SDS011;1442;47.448;8.582;2024-03-23T10:50:19;2.67;;;1.20;;
2868;SDS011;1442;47.448;8.582;2024-03-23T10:52:46;3.58;;;1.20;;
2868;SDS011;1442;47.448;8.582;2024-03-23T10:55:14;7.05;;;1.38;;
2868;SDS011;1442;47.448;8.582;2024-03-23T10:57:44;9.40;;;1.35;;
2868;SDS011;1442;47.448;8.582;2024-03-23T11:00:16;7.32;;;1.52;;
2868;SDS011;1442;47.448;8.582;2024-03-23T11:02:42;6.60;;;1.80;;
2868;SDS011;1442;47.448;8.582;2024-03-23T11:05:28;6.30;;;1.67;;
2868;SDS011;1442;47.448;8.582;2024-03-23T11:07:56;8.27;;;1.67;;
2868;SDS011;1442;47.448;8.582;2024-03-23T11:10:24;5.40;;;1.40;;
2868;SDS011;1442;47.448;8.582;2024-03-23T11:12:53;9.95;;;1.70;;
2868;SDS011;1442;47.448;8.582;2024-03-23T11:15:19;9.20;;;2.60;;
2868;SDS011;1442;47.448;8.582;2024-03-23T11:20:32;3.35;;;1.17;;
2868;SDS011;1442;47.448;8.582;2024-03-23T11:23:00;7.70;;;1.35;;
2868;SDS011;1442;47.448;8.582;2024-03-23T11:25:27;7.93;;;1.13;;
2868;SDS011;1442;47.448;8.582;2024-03-23T11:27:56;5.25;;;1.27;;
2868;SDS011;1442;47.448;8.582;2024-03-23T11:30:23;2.22;;;1.00;;
2868;SDS011;1442;47.448;8.582;2024-03-23T11:32:51;6.03;;;1.63;;
2868;SDS011;1442;47.448;8.582;2024-03-23T11:35:28;4.32;;;1.05;;
2868;SDS011;1442;47.448;8.582;2024-03-23T11:38:05;4.45;;;1.23;;
2868;SDS011;1442;47.448;8.582;2024-03-23T11:40:32;7.10;;;1.10;;
2868;SDS011;1442;47.448;8.582;2024-03-23T11:43:01;3.35;;;1.23;;
2868;SDS011;1442;47.448;8.582;2024-03-23T11:45:28;8.55;;;1.40;;
2868;SDS011;1442;47.448;8.582;2024-03-23T11:48:06;8.50;;;1.08;;
2868;SDS011;1442;47.448;8.582;2024-03-23T11:50:34;5.38;;;1.23;;
2868;SDS011;1442;47.448;8.582;2024-03-23T11:53:08;5.10;;;0.98;;
2868;SDS011;1442;47.448;8.582;2024-03-23T11:55:44;3.08;;;1.30;;
2868;SDS011;1442;47.448;8.582;2024-03-23T11:58:14;3.70;;;1.45;;
2868;SDS011;1442;47.448;8.582;2024-03-23T12:00:40;2.38;;;1.05;;
2868;SDS011;1442;47.448;8.582;2024-03-23T12:03:07;7.00;;;1.35;;
2868;SDS011;1442;47.448;8.582;2024-03-23T12:05:35;3.90;;;1.30;;
2868;SDS011;1442;47.448;8.582;2024-03-23T12:08:14;3.95;;;1.58;;
2868;SDS011;1442;47.448;8.582;2024-03-23T12:10:43;5.90;;;1.33;;
2868;SDS011;1442;47.448;8.582;2024-03-23T12:13:10;8.10;;;0.93;;
2868;SDS011;1442;47.448;8.582;2024-03-23T12:15:38;4.60;;;1.00;;
2868;SDS011;1442;47.448;8.582;2024-03-23T12:18:08;8.35;;;1.35;;
2868;SDS011;1442;47.448;8.582;2024-03-23T12:20:33;5.28;;;1.02;;
2868;SDS011;1442;47.448;8.582;2024-03-23T12:23:07;7.00;;;1.10;;
2868;SDS011;1442;47.448;8.582;2024-03-23T12:25:36;1.48;;;0.77;;
2868;SDS011;1442;47.448;8.582;2024-03-23T12:28:04;4.25;;;0.77;;
2868;SDS011;1442;47.448;8.582;2024-03-23T12:30:31;6.95;;;0.82;;
2868;SDS011;1442;47.448;8.582;2024-03-23T12:33:00;4.32;;;1.58;;
2868;SDS011;1442;47.448;8.582;2024-03-23T12:35:25;4.65;;;1.30;;
2868;SDS011;1442;47.448;8.582;2024-03-23T12:37:52;6.95;;;1.30;;
2868;SDS011;1442;47.448;8.582;2024-03-23T12:40:18;5.15;;;1.33;;
2868;SDS011;1442;47.448;8.582;2024-03-23T12:42:45;6.80;;;1.40;;
2868;SDS011;1442;47.448;8.582;2024-03-23T12:45:10;4.63;;;1.35;;
2868;SDS011;1442;47.448;8.582;2024-03-23T12:47:37;3.63;;;1.25;;
2868;SDS011;1442;47.448;8.582;2024-03-23T12:50:04;3.90;;;1.20;;
2868;SDS011;1442;47.448;8.582;2024-03-23T12:52:32;5.25;;;1.15;;
2868;SDS011;1442;47.448;8.582;2024-03-23T12:54:58;7.20;;;1.73;;
2868;SDS011;1442;47.448;8.582;2024-03-23T12:57:25;5.93;;;1.63;;
2868;SDS011;1442;47.448;8.582;2024-03-23T12:59:51;5.80;;;1.40;;
2868;SDS011;1442;47.448;8.582;2024-03-23T13:02:19;3.47;;;1.20;;
2868;SDS011;1442;47.448;8.582;2024-03-23T13:04:46;4.82;;;1.30;;
2868;SDS011;1442;47.448;8.582;2024-03-23T13:07:14;5.53;;;1.60;;
2868;SDS011;1442;47.448;8.582;2024-03-23T13:09:40;6.43;;;1.70;;
2868;SDS011;1442;47.448;8.582;2024-03-23T13:12:07;6.35;;;1.52;;
2868;SDS011;1442;47.448;8.582;2024-03-23T13:14:33;3.75;;;1.15;;
2868;SDS011;1442;47.448;8.582;2024-03-23T13:17:00;8.10;;;1.42;;
2868;SDS011;1442;47.448;8.582;2024-03-23T13:19:27;5.75;;;1.90;;
2868;SDS011;1442;47.448;8.582;2024-03-23T13:21:55;6.13;;;1.20;;
2868;SDS011;1442;47.448;8.582;2024-03-23T13:24:23;7.38;;;1.63;;
2868;SDS011;1442;47.448;8.582;2024-03-23T13:26:50;5.20;;;1.67;;
2868;SDS011;1442;47.448;8.582;2024-03-23T13:29:17;3.13;;;0.80;;
2868;SDS011;1442;47.448;8.582;2024-03-23T13:31:44;3.47;;;1.13;;
2868;SDS011;1442;47.448;8.582;2024-03-23T13:34:09;2.92;;;0.93;;
2868;SDS011;1442;47.448;8.582;2024-03-23T13:36:36;4.90;;;0.90;;
2868;SDS011;1442;47.448;8.582;2024-03-23T13:39:02;2.83;;;1.00;;
2868;SDS011;1442;47.448;8.582;2024-03-23T13:41:37;5.70;;;1.33;;
2868;SDS011;1442;47.448;8.582;2024-03-23T13:44:03;3.83;;;1.73;;
2868;SDS011;1442;47.448;8.582;2024-03-23T13:46:30;4.43;;;1.10;;
2868;SDS011;1442;47.448;8.582;2024-03-23T13:48:56;5.10;;;1.33;;
2868;SDS011;1442;47.448;8.582;2024-03-23T13:51:23;4.40;;;1.23;;
2868;SDS011;1442;47.448;8.582;2024-03-23T13:53:50;2.75;;;1.00;;
2868;SDS011;1442;47.448;8.582;2024-03-23T13:56:16;6.22;;;1.73;;
2868;SDS011;1442;47.448;8.582;2024-03-23T13:58:44;5.47;;;1.13;;
2868;SDS011;1442;47.448;8.582;2024-03-23T14:01:12;4.18;;;1.23;;
2868;SDS011;1442;47.448;8.582;2024-03-23T14:03:38;3.58;;;1.10;;
2868;SDS011;1442;47.448;8.582;2024-03-23T14:06:05;4.50;;;1.10;;
2868;SDS011;1442;47.448;8.582;2024-03-23T14:08:32;6.78;;;1.40;;
2868;SDS011;1442;47.448;8.582;2024-03-23T14:11:01;6.57;;;1.00;;
2868;SDS011;1442;47.448;8.582;2024-03-23T14:13:28;3.35;;;0.80;;
2868;SDS011;1442;47.448;8.582;2024-03-23T14:15:57;6.88;;;1.45;;
2868;SDS011;1442;47.448;8.582;2024-03-23T14:18:23;3.13;;;1.10;;
2868;SDS011;1442;47.448;8.582;2024-03-23T14:20:51;5.00;;;1.30;;
2868;SDS011;1442;47.448;8.582;2024-03-23T14:23:18;6.97;;;1.63;;
2868;SDS011;1442;47.448;8.582;2024-03-23T14:25:45;6.28;;;1.30;;
2868;SDS011;1442;47.448;8.582;2024-03-23T14:28:10;4.40;;;1.60;;
2868;SDS011;1442;47.448;8.582;2024-03-23T14:30:40;3.83;;;1.00;;
2868;SDS011;1442;47.448;8.582;2024-03-23T14:33:08;3.40;;;1.10;;
2868;SDS011;1442;47.448;8.582;2024-03-23T14:35:34;4.00;;;1.38;;
2868;SDS011;1442;47.448;8.582;2024-03-23T14:38:00;2.33;;;1.15;;
2868;SDS011;1442;47.448;8.582;2024-03-23T14:40:27;3.83;;;1.00;;
2868;SDS011;1442;47.448;8.582;2024-03-23T14:42:53;5.45;;;1.30;;
2868;SDS011;1442;47.448;8.582;2024-03-23T14:45:20;2.60;;;0.80;;
2868;SDS011;1442;47.448;8.582;2024-03-23T14:47:46;2.95;;;1.00;;
2868;SDS011;1442;47.448;8.582;2024-03-23T14:50:14;6.68;;;1.27;;
2868;SDS011;1442;47.448;8.582;2024-03-23T14:52:41;3.85;;;1.48;;
2868;SDS011;1442;47.448;8.582;2024-03-23T14:55:09;4.18;;;1.00;;
2868;SDS011;1442;47.448;8.582;2024-03-23T14:57:36;4.68;;;0.90;;
2868;SDS011;1442;47.448;8.582;2024-03-23T15:00:04;6.22;;;1.50;;
2868;SDS011;1442;47.448;8.582;2024-03-23T15:02:31;4.82;;;1.20;;
2868;SDS011;1442;47.448;8.582;2024-03-23T15:04:58;5.93;;;1.63;;
2868;SDS011;1442;47.448;8.582;2024-03-23T15:07:25;3.63;;;1.10;;
2868;SDS011;1442;47.448;8.582;2024-03-23T15:09:53;5.47;;;1.15;;
2868;SDS011;1442;47.448;8.582;2024-03-23T15:12:19;5.38;;;1.05;;
2868;SDS011;1442;47.448;8.582;2024-03-23T15:14:46;5.80;;;1.10;;
2868;SDS011;1442;47.448;8.582;2024-03-23T15:17:12;2.45;;;1.00;;
2868;SDS011;1442;47.448;8.582;2024-03-23T15:19:39;2.42;;;0.98;;
2868;SDS011;1442;47.448;8.582;2024-03-23T15:22:06;2.30;;;0.95;;
2868;SDS011;1442;47.448;8.582;2024-03-23T15:24:35;3.50;;;1.77;;
2868;SDS011;1442;47.448;8.582;2024-03-23T15:27:01;4.70;;;1.30;;
2868;SDS011;1442;47.448;8.582;2024-03-23T15:29:28;3.85;;;0.90;;
2868;SDS011;1442;47.448;8.582;2024-03-23T15:31:54;2.70;;;0.98;;
2868;SDS011;1442;47.448;8.582;2024-03-23T15:34:21;1.70;;;0.90;;
2868;SDS011;1442;47.448;8.582;2024-03-23T15:36:47;1.50;;;0.70;;
2868;SDS011;1442;47.448;8.582;2024-03-23T15:39:15;4.15;;;1.10;;
2868;SDS011;1442;47.448;8.582;2024-03-23T15:41:42;2.72;;;0.90;;
2868;SDS011;1442;47.448;8.582;2024-03-23T15:44:10;3.15;;;0.95;;
2868;SDS011;1442;47.448;8.582;2024-03-23T15:46:36;2.33;;;0.90;;
2868;SDS011;1442;47.448;8.582;2024-03-23T15:49:03;3.33;;;0.90;;
2868;SDS011;1442;47.448;8.582;2024-03-23T15:51:29;2.03;;;0.82;;
2868;SDS011;1442;47.448;8.582;2024-03-23T15:53:59;3.85;;;1.20;;
2868;SDS011;1442;47.448;8.582;2024-03-23T15:56:25;0.98;;;0.70;;
2868;SDS011;1442;47.448;8.582;2024-03-23T15:58:53;4.13;;;1.17;;
2868;SDS011;1442;47.448;8.582;2024-03-23T16:01:19;1.50;;;0.73;;
2868;SDS011;1442;47.448;8.582;2024-03-23T16:03:47;2.67;;;1.00;;
2868;SDS011;1442;47.448;8.582;2024-03-23T16:06:13;1.65;;;0.73;;
2868;SDS011;1442;47.448;8.582;2024-03-23T16:08:39;3.53;;;1.80;;
2868;SDS011;1442;47.448;8.582;2024-03-23T16:11:05;2.60;;;0.88;;
2868;SDS011;1442;47.448;8.582;2024-03-23T16:13:34;3.47;;;1.05;;